Dades meteomassalio
Diari Summary for Noviembre 17, 2017 Units:  English    Metric   Both
« Previous Day
Next Day »
Diari Semanal Mensual Anual Personalitzat
  Maxima: Minima: Mijana:
Temperatura: TemperatureC °F -2.8 °F 5 °F
Rosada: DewpointC °F -5.7 °F -3.1 °F
Humitat: Humidity % 33 % 59 %
Velocitat del vent: WindSpeedKMH mph 0.0 mph 3.4 mph
Racha vent: WindSpeedGustKMH mph - -
Vent:- - NW
Pressio: PressurehPa in 1022.6 in -
Pluja: 0.0 in    
Historical Graphs
 
 
Tabular Data for Noviembre 17, 2017
Time Temperature Dew Point Pressure Wind Wind Speed Wind Gust Humidity Rainfall Rate (Hourly) solar Conditions
TemperatureC °F DewpointC °F PressurehPa in Calm     Humidity % HourlyPrecipMM in SolarRadiationWatts/m^2 W/m2 Conditions
00:01 -0.6 °F -5.6 °F 1025.3 in Calm     69 % 0.0 in 0.0 W/m2 CLR
00:06 -0.6 °F -5.6 °F 1025.3 in Calm     69 % 0.0 in 0.0 W/m2 CLR
00:11 -0.6 °F -5.3 °F 1024.9 in Calm     70 % 0.0 in 0.0 W/m2 CLR
00:16 -0.6 °F -5.3 °F 1025.3 in Calm     70 % 0.0 in 0.0 W/m2 CLR
00:21 0.0 °F -4.6 °F 1025.3 in Calm     71 % 0.0 in 0.0 W/m2 CLR
00:26 0.0 °F -4.6 °F 1025.3 in Calm     71 % 0.0 in 0.0 W/m2 CLR
00:31 0.0 °F -4.4 °F 1025.3 in Calm     72 % 0.0 in 0.0 W/m2 CLR
00:36 0.0 °F -4.4 °F 1025.3 in Calm     72 % 0.0 in 0.0 W/m2 CLR
00:42 -0.6 °F -5.0 °F 1025.3 in Calm     72 % 0.0 in 0.0 W/m2 CLR
00:46 -0.6 °F -5.2 °F 1025.3 in Calm     71 % 0.0 in 0.0 W/m2 CLR
00:51 -0.6 °F -5.2 °F 1025.3 in Calm     71 % 0.0 in 0.0 W/m2 CLR
00:57 -1.1 °F -5.5 °F 1025.3 in Calm     72 % 0.0 in 0.0 W/m2 CLR
01:01 -1.1 °F -5.5 °F 1025.3 in Calm     72 % 0.0 in 0.0 W/m2 CLR
01:07 -1.1 °F -5.5 °F 1025.3 in Calm     72 % 0.0 in 0.0 W/m2 CLR
01:12 -0.6 °F -5.0 °F 1024.9 in Calm     72 % 0.0 in 0.0 W/m2 CLR
01:22 -0.6 °F -4.8 °F 1024.9 in Calm     73 % 0.0 in 0.0 W/m2 CLR
01:27 -1.1 °F -5.3 °F 1024.9 in Calm     73 % 0.0 in 0.0 W/m2 CLR
01:32 -0.6 °F -4.6 °F 1024.9 in Calm     74 % 0.0 in 0.0 W/m2 CLR
01:37 -0.6 °F -4.6 °F 1024.9 in Calm     74 % 0.0 in 0.0 W/m2 CLR
01:42 -0.6 °F -4.6 °F 1024.9 in Calm     74 % 0.0 in 0.0 W/m2 CLR
01:47 -0.6 °F -4.6 °F 1024.6 in Calm     74 % 0.0 in 0.0 W/m2 CLR
01:52 -0.6 °F -4.8 °F 1024.9 in Calm     73 % 0.0 in 0.0 W/m2 CLR
01:57 -0.6 °F -4.8 °F 1024.9 in Calm     73 % 0.0 in 0.0 W/m2 CLR
02:02 -1.1 °F -5.2 °F 1024.9 in Calm     74 % 0.0 in 0.0 W/m2 CLR
02:07 -1.1 °F -5.2 °F 1024.6 in Calm     74 % 0.0 in 0.0 W/m2 CLR
02:12 -1.1 °F -5.0 °F 1024.6 in Calm     75 % 0.0 in 0.0 W/m2 CLR
02:17 -1.1 °F -5.0 °F 1024.6 in Calm     75 % 0.0 in 0.0 W/m2 CLR
02:22 -0.6 °F -4.4 °F 1024.6 in Calm     75 % 0.0 in 0.0 W/m2 CLR
02:27 -0.6 °F -4.4 °F 1024.6 in Calm     75 % 0.0 in 0.0 W/m2 CLR
02:32 -0.6 °F -4.4 °F 1024.6 in Calm     75 % 0.0 in 0.0 W/m2 CLR
02:37 -0.6 °F -4.4 °F 1024.9 in Calm     75 % 0.0 in 0.0 W/m2 CLR
02:42 -0.6 °F -4.4 °F 1024.9 in Calm     75 % 0.0 in 0.0 W/m2 CLR
02:47 -1.1 °F -5.0 °F 1024.9 in Calm     75 % 0.0 in 0.0 W/m2 CLR
02:52 -1.1 °F -4.8 °F 1024.9 in Calm     76 % 0.0 in 0.0 W/m2 CLR
02:57 -1.1 °F -4.8 °F 1024.9 in Calm     76 % 0.0 in 0.0 W/m2 CLR
03:02 -0.6 °F -4.3 °F 1024.6 in Calm     76 % 0.0 in 0.0 W/m2 CLR
03:07 -0.6 °F -4.4 °F 1024.9 in Calm     75 % 0.0 in 0.0 W/m2 CLR
03:12 -0.6 °F -4.4 °F 1024.9 in Calm     75 % 0.0 in 0.0 W/m2 CLR
03:17 -0.6 °F -4.1 °F 1024.6 in Calm     77 % 0.0 in 0.0 W/m2 CLR
03:22 -0.6 °F -4.1 °F 1024.6 in Calm     77 % 0.0 in 0.0 W/m2 CLR
03:27 -1.1 °F -4.6 °F 1024.9 in Calm     77 % 0.0 in 0.0 W/m2 CLR
03:32 -1.1 °F -4.8 °F 1024.9 in Calm     76 % 0.0 in 0.0 W/m2 CLR
03:37 -1.1 °F -4.8 °F 1024.6 in Calm     76 % 0.0 in 0.0 W/m2 CLR
03:42 -1.1 °F -4.8 °F 1024.6 in Calm     76 % 0.0 in 0.0 W/m2 CLR
03:47 -1.1 °F -4.8 °F 1024.9 in Calm     76 % 0.0 in 0.0 W/m2 CLR
03:52 -1.7 °F -5.3 °F 1024.9 in Calm     76 % 0.0 in 0.0 W/m2 CLR
03:57 -1.7 °F -5.3 °F 1024.9 in Calm     76 % 0.0 in 0.0 W/m2 CLR
04:02 -1.7 °F -5.2 °F 1024.6 in Calm     77 % 0.0 in 0.0 W/m2 CLR
04:07 -1.1 °F -4.4 °F 1024.6 in Calm     78 % 0.0 in 0.0 W/m2 CLR
04:12 -1.1 °F -4.4 °F 1024.6 in Calm     78 % 0.0 in 0.0 W/m2 CLR
04:18 -1.1 °F -4.8 °F 1024.6 in Calm     76 % 0.0 in 0.0 W/m2 CLR
04:22 -1.1 °F -4.6 °F 1024.6 in Calm     77 % 0.0 in 0.0 W/m2 CLR
04:23 -1.1 °F -4.6 °F 1024.6 in Calm     77 % 0.0 in 0.0 W/m2 CLR
04:24 -1.1 °F -4.6 °F 1024.6 in Calm     77 % 0.0 in 0.0 W/m2 CLR
04:27 -1.1 °F -4.6 °F 1024.6 in Calm     77 % 0.0 in 0.0 W/m2 CLR
04:31 -1.1 °F -4.6 °F 1024.6 in Calm     77 % 0.0 in 0.0 W/m2 CLR
04:36 -1.1 °F -4.8 °F 1024.6 in Calm     76 % 0.0 in 0.0 W/m2 CLR
04:41 -1.1 °F -4.6 °F 1024.6 in Calm     77 % 0.0 in 0.0 W/m2 CLR
04:46 -1.1 °F -4.6 °F 1024.6 in Calm     77 % 0.0 in 0.0 W/m2 CLR
04:51 -1.1 °F -4.4 °F 1024.6 in Calm     78 % 0.0 in 0.0 W/m2 CLR
04:56 -1.1 °F -4.4 °F 1024.6 in Calm     78 % 0.0 in 0.0 W/m2 CLR
05:01 -1.1 °F -4.4 °F 1024.6 in Calm     78 % 0.0 in 0.0 W/m2 CLR
05:06 -1.1 °F -4.1 °F 1024.6 in Calm     80 % 0.0 in 0.0 W/m2 CLR
05:11 -1.1 °F -4.1 °F 1024.6 in Calm     80 % 0.0 in 0.0 W/m2 CLR
05:16 -1.1 °F -4.3 °F 1024.6 in Calm     79 % 0.0 in 0.0 W/m2 CLR
05:21 -1.1 °F -4.3 °F 1024.6 in Calm     79 % 0.0 in 0.0 W/m2 CLR
05:26 -1.1 °F -4.3 °F 1024.3 in Calm     79 % 0.0 in 0.0 W/m2 CLR
05:31 -1.1 °F -4.4 °F 1024.6 in Calm     78 % 0.0 in 0.0 W/m2 CLR
05:36 -1.1 °F -4.3 °F 1024.6 in Calm     79 % 0.0 in 0.0 W/m2 CLR
05:41 -1.7 °F -4.8 °F 1024.6 in Calm     79 % 0.0 in 0.0 W/m2 CLR
05:46 -1.7 °F -4.5 °F 1024.6 in Calm     81 % 0.0 in 0.0 W/m2 CLR
05:51 -1.7 °F -4.5 °F 1024.3 in Calm     81 % 0.0 in 0.0 W/m2 CLR
05:56 -1.7 °F -4.5 °F 1024.3 in Calm     81 % 0.0 in 0.0 W/m2 CLR
06:01 -1.7 °F -4.8 °F 1024.3 in Calm     79 % 0.0 in 0.0 W/m2 CLR
06:06 -1.7 °F -5.0 °F 1024.3 in Calm     78 % 0.0 in 0.0 W/m2 CLR
06:11 -1.7 °F -4.7 °F 1024.6 in Calm     80 % 0.0 in 0.0 W/m2 CLR
06:16 -1.7 °F -4.7 °F 1024.6 in Calm     80 % 0.0 in 0.0 W/m2 CLR
06:21 -1.7 °F -4.7 °F 1024.6 in Calm     80 % 0.0 in 0.0 W/m2 CLR
06:26 -1.7 °F -4.8 °F 1024.6 in Calm     79 % 0.0 in 0.0 W/m2 CLR
06:31 -1.7 °F -4.7 °F 1024.6 in Calm     80 % 0.0 in 0.0 W/m2 CLR
06:37 -1.7 °F -4.5 °F 1024.6 in Calm     81 % 0.0 in 0.0 W/m2 CLR
06:42 -1.7 °F -4.7 °F 1024.6 in Calm     80 % 0.0 in 0.0 W/m2 CLR
06:47 -1.7 °F -4.7 °F 1024.6 in Calm     80 % 0.0 in 0.0 W/m2 CLR
06:52 -1.7 °F -4.5 °F 1024.6 in Calm     81 % 0.0 in 0.0 W/m2 CLR
06:57 -1.7 °F -4.5 °F 1024.6 in Calm     81 % 0.0 in 0.0 W/m2 CLR
07:02 -1.7 °F -4.5 °F 1024.6 in Calm     81 % 0.0 in 0.0 W/m2 CLR
07:07 -2.2 °F -4.9 °F 1024.6 in Calm     82 % 0.0 in 0.0 W/m2 CLR
07:12 -2.2 °F -5.1 °F 1024.6 in Calm     81 % 0.0 in 0.0 W/m2 CLR
07:17 -2.2 °F -5.1 °F 1024.6 in Calm     81 % 0.0 in 0.0 W/m2 CLR
07:22 -2.2 °F -4.9 °F 1024.9 in Calm     82 % 0.0 in 0.0 W/m2 CLR
07:27 -2.2 °F -4.9 °F 1024.9 in Calm     82 % 0.0 in 0.0 W/m2 CLR
07:32 -2.2 °F -4.9 °F 1024.9 in Calm     82 % 0.0 in 0.0 W/m2 CLR
07:37 -2.8 °F -5.6 °F 1024.9 in Calm     81 % 0.0 in 0.0 W/m2 CLR
07:42 -2.2 °F -5.2 °F 1024.9 in Calm     80 % 0.0 in 0.0 W/m2 OVC
07:47 -2.2 °F -5.2 °F 1024.9 in Calm     80 % 0.0 in 0.0 W/m2 OVC
07:52 -2.2 °F -5.1 °F 1024.9 in Calm     81 % 0.0 in 5.0 W/m2 OVC
07:57 -2.2 °F -4.9 °F 1024.9 in Calm     82 % 0.0 in 7.0 W/m2 OVC
08:02 -2.2 °F -4.9 °F 1024.9 in Calm     82 % 0.0 in 11.0 W/m2 OVC
08:07 -2.2 °F -4.9 °F 1024.9 in Calm     82 % 0.0 in 12.0 W/m2 OVC
08:11 -2.2 °F -4.9 °F 1024.9 in Calm     82 % 0.0 in 12.0 W/m2 OVC
08:16 -1.7 °F -4.5 °F 1024.9 in Calm     81 % 0.0 in 16.0 W/m2 OVC
08:17 -2.2 °F -5.2 °F 1024.9 in Calm     80 % 0.0 in 16.0 W/m2 OVC
08:22 -2.2 °F -5.4 °F 1025.3 in Calm     79 % 0.0 in 25.0 W/m2 OVC
08:27 -2.2 °F -5.7 °F 1025.3 in Calm     77 % 0.0 in 37.0 W/m2 OVC
08:32 -1.7 °F -5.2 °F 1025.3 in Calm     77 % 0.0 in 42.0 W/m2 OVC
08:37 -1.7 °F -5.2 °F 1025.3 in Calm     77 % 0.0 in 56.0 W/m2 OVC
08:42 -2.2 °F -5.6 °F 1025.3 in Calm     78 % 0.0 in 69.0 W/m2 OVC
08:47 -2.2 °F -5.6 °F 1025.3 in Calm     78 % 0.0 in 67.0 W/m2 OVC
08:52 -1.7 °F -5.3 °F 1025.6 in Calm     76 % 0.0 in 97.0 W/m2 BKN
08:57 -1.7 °F -5.5 °F 1025.6 in Calm     75 % 0.0 in 109.0 W/m2 SCT
09:02 -0.6 °F -4.6 °F 1025.6 in Calm     74 % 0.0 in 90.0 W/m2 CLR
09:03 -0.6 °F -4.6 °F 1025.6 in Calm     74 % 0.0 in 90.0 W/m2 CLR
09:08 0.0 °F -4.1 °F 1025.6 in Calm     74 % 0.0 in 114.0 W/m2 CLR
09:13 0.0 °F -4.4 °F 1025.6 in Calm     72 % 0.0 in 128.0 W/m2 CLR
09:18 0.6 °F -4.3 °F 1025.6 in Calm     70 % 0.0 in 172.0 W/m2 CLR
09:23 0.6 °F -4.9 °F 1025.6 in Calm     67 % 0.0 in 188.0 W/m2 CLR
09:28 1.1 °F -4.6 °F 1025.6 in Calm     66 % 0.0 in 104.0 W/m2 CLR
09:33 1.1 °F -4.7 °F 1025.6 in Calm     65 % 0.0 in 220.0 W/m2 CLR
09:38 1.1 °F -5.2 °F 1025.6 in Calm     63 % 0.0 in 232.0 W/m2 CLR
09:48 2.8 °F -4.0 °F 1025.6 in Calm     61 % 0.0 in 262.0 W/m2 CLR
09:53 3.3 °F -3.9 °F 1025.6 in Calm     59 % 0.0 in 272.0 W/m2 CLR
09:58 3.9 °F -3.6 °F 1025.6 in Calm     58 % 0.0 in 285.0 W/m2 CLR
10:03 4.4 °F -3.3 °F 1025.6 in Calm     57 % 0.0 in 294.0 W/m2 CLR
10:08 5.0 °F -3.1 °F 1025.6 in Calm     56 % 0.0 in 302.0 W/m2 CLR
10:18 6.1 °F -2.5 °F 1025.6 in Calm     54 % 0.0 in 327.0 W/m2 CLR
10:23 6.7 °F -2.0 °F 1025.6 in Calm     54 % 0.0 in 339.0 W/m2 CLR
10:28 7.2 °F -1.7 °F 1025.6 in Calm     53 % 0.0 in 348.0 W/m2 CLR
10:33 7.2 °F -1.7 °F 1025.6 in Calm     53 % 0.0 in 360.0 W/m2 CLR
10:38 8.3 °F -0.9 °F 1025.6 in Calm     52 % 0.0 in 367.0 W/m2 CLR
10:43 8.3 °F -1.2 °F 1025.6 in Calm     51 % 0.0 in 374.0 W/m2 CLR
10:48 8.9 °F -1.3 °F 1025.6 in Calm     49 % 0.0 in 385.0 W/m2 CLR
10:53 9.4 °F -1.1 °F 1025.6 in Calm     48 % 0.0 in 394.0 W/m2 CLR
10:58 9.4 °F -1.6 °F 1025.6 in Calm     46 % 0.0 in 403.0 W/m2 CLR
11:03 10.6 °F -0.9 °F 1025.6 in Calm     45 % 0.0 in 411.0 W/m2 CLR
11:08 10.6 °F -1.8 °F 1025.6 in NNW 13.0 mph 13.0 mph 42 % 0.0 in 417.0 W/m2 CLR
11:13 12.2 °F -0.7 °F 1025.6 in NW 18.5 mph 18.5 mph 41 % 0.0 in 422.0 W/m2 CLR
11:18 13.3 °F 0.3 °F 1025.6 in NW 18.5 mph 18.5 mph 41 % 0.0 in 431.0 W/m2 CLR
11:23 13.9 °F 0.8 °F 1025.6 in NNW 18.5 mph 18.5 mph 41 % 0.0 in 436.0 W/m2 CLR
11:28 13.9 °F 0.5 °F 1025.6 in NNW 18.5 mph 18.5 mph 40 % 0.0 in 443.0 W/m2 CLR
11:33 14.4 °F 1.0 °F 1025.6 in NNW 24.1 mph 24.1 mph 40 % 0.0 in 448.0 W/m2 CLR
11:38 14.4 °F 1.0 °F 1025.3 in NNW 18.5 mph 18.5 mph 40 % 0.0 in 454.0 W/m2 CLR
11:43 15.0 °F 1.2 °F 1025.3 in NNW 16.7 mph 16.7 mph 39 % 0.0 in 459.0 W/m2 CLR
11:48 15.0 °F 1.2 °F 1025.3 in West 13.0 mph 13.0 mph 39 % 0.0 in 462.0 W/m2 CLR
11:53 15.0 °F 0.8 °F 1025.3 in WNW 16.7 mph 16.7 mph 38 % 0.0 in 468.0 W/m2 CLR
11:58 15.0 °F 0.8 °F 1025.3 in NNW 18.5 mph 18.5 mph 38 % 0.0 in 471.0 W/m2 CLR
12:03 15.0 °F 0.8 °F 1024.9 in NW 16.7 mph 16.7 mph 38 % 0.0 in 476.0 W/m2 CLR
12:08 15.6 °F 1.3 °F 1024.9 in NNW 18.5 mph 18.5 mph 38 % 0.0 in 478.0 W/m2 CLR
12:13 15.6 °F 1.3 °F 1024.9 in NW 18.5 mph 18.5 mph 38 % 0.0 in 482.0 W/m2 CLR
12:23 15.6 °F 1.3 °F 1024.9 in NNW 18.5 mph 18.5 mph 38 % 0.0 in 487.0 W/m2 CLR
12:28 15.6 °F 1.3 °F 1024.9 in WNW 14.8 mph 14.8 mph 38 % 0.0 in 487.0 W/m2 CLR
12:33 15.6 °F 1.3 °F 1024.9 in North 17.7 mph 17.7 mph 38 % 0.0 in 489.0 W/m2 CLR
12:38 16.1 °F 1.8 °F 1024.6 in NW 11.3 mph 11.3 mph 38 % 0.0 in 490.0 W/m2 CLR
12:43 16.1 °F 1.4 °F 1024.6 in NNW 16.7 mph 16.7 mph 37 % 0.0 in 490.0 W/m2 CLR
12:48 15.6 °F 0.9 °F 1024.6 in NW 17.7 mph 17.7 mph 37 % 0.0 in 490.0 W/m2 CLR
12:53 15.6 °F 0.9 °F 1024.6 in NW 22.2 mph 22.2 mph 37 % 0.0 in 490.0 W/m2 CLR
12:58 16.1 °F 1.4 °F 1024.6 in NW 20.9 mph 20.9 mph 37 % 0.0 in 489.0 W/m2 CLR
13:03 16.1 °F 1.4 °F 1024.6 in NW 18.5 mph 18.5 mph 37 % 0.0 in 489.0 W/m2 CLR
13:08 16.7 °F 1.9 °F 1024.3 in NW 17.7 mph 17.7 mph 37 % 0.0 in 487.0 W/m2 CLR
13:13 16.7 °F 1.5 °F 1024.3 in NW 16.7 mph 16.7 mph 36 % 0.0 in 485.0 W/m2 CLR
13:18 16.7 °F 1.5 °F 1024.3 in North 19.3 mph 19.3 mph 36 % 0.0 in 482.0 W/m2 CLR
13:23 16.7 °F 1.5 °F 1024.3 in NNW 14.8 mph 14.8 mph 36 % 0.0 in 480.0 W/m2 CLR
13:28 16.7 °F 1.1 °F 1024.3 in NW 14.8 mph 14.8 mph 35 % 0.0 in 476.0 W/m2 CLR
13:33 16.7 °F 1.5 °F 1024.3 in North 20.9 mph 20.9 mph 36 % 0.0 in 475.0 W/m2 CLR
13:38 17.2 °F 2.0 °F 1023.9 in NNW 18.5 mph 18.5 mph 36 % 0.0 in 469.0 W/m2 CLR
13:43 16.7 °F 1.5 °F 1023.9 in North 16.7 mph 16.7 mph 36 % 0.0 in 466.0 W/m2 CLR
13:48 17.2 °F 1.6 °F 1023.9 in North 18.5 mph 18.5 mph 35 % 0.0 in 462.0 W/m2 CLR
13:53 17.2 °F 1.6 °F 1023.9 in NW 18.5 mph 18.5 mph 35 % 0.0 in 457.0 W/m2 CLR
13:58 17.2 °F 1.6 °F 1023.9 in North 14.8 mph 14.8 mph 35 % 0.0 in 450.0 W/m2 CLR
14:03 17.2 °F 1.6 °F 1023.9 in NW 14.8 mph 14.8 mph 35 % 0.0 in 443.0 W/m2 CLR
14:08 17.2 °F 1.6 °F 1023.6 in NNW 18.5 mph 18.5 mph 35 % 0.0 in 434.0 W/m2 CLR
14:13 17.2 °F 1.6 °F 1023.6 in NW 20.4 mph 20.4 mph 35 % 0.0 in 427.0 W/m2 CLR
14:18 17.2 °F 1.6 °F 1023.6 in NW 18.5 mph 18.5 mph 35 % 0.0 in 424.0 W/m2 CLR
14:23 17.2 °F 1.6 °F 1023.6 in North 13.0 mph 13.0 mph 35 % 0.0 in 418.0 W/m2 CLR
14:28 17.2 °F 1.6 °F 1023.2 in NNW 14.8 mph 14.8 mph 35 % 0.0 in 411.0 W/m2 CLR
14:33 17.8 °F 1.7 °F 1023.2 in North 18.5 mph 18.5 mph 34 % 0.0 in 403.0 W/m2 CLR
14:38 17.8 °F 1.7 °F 1023.2 in North 20.4 mph 20.4 mph 34 % 0.0 in 396.0 W/m2 CLR
14:43 17.2 °F 1.2 °F 1023.2 in NW 16.7 mph 16.7 mph 34 % 0.0 in 388.0 W/m2 CLR
14:48 17.2 °F 1.2 °F 1023.2 in North 18.5 mph 18.5 mph 34 % 0.0 in 378.0 W/m2 CLR
14:53 16.7 °F 0.7 °F 1023.2 in North 25.9 mph 25.9 mph 34 % 0.0 in 369.0 W/m2 CLR
14:58 17.2 °F 1.2 °F 1023.2 in North 25.9 mph 25.9 mph 34 % 0.0 in 359.0 W/m2 CLR
15:03 17.2 °F 1.2 °F 1023.2 in North 27.8 mph 27.8 mph 34 % 0.0 in 350.0 W/m2 CLR
15:08 17.2 °F 1.2 °F 1023.2 in NNW 24.1 mph 24.1 mph 34 % 0.0 in 338.0 W/m2 CLR
15:13 17.2 °F 1.2 °F 1022.9 in NNW 16.7 mph 16.7 mph 34 % 0.0 in 330.0 W/m2 CLR
15:18 17.2 °F 1.2 °F 1022.9 in NNW 13.0 mph 13.0 mph 34 % 0.0 in 315.0 W/m2 CLR
15:23 17.2 °F 0.8 °F 1022.9 in North 14.8 mph 14.8 mph 33 % 0.0 in 308.0 W/m2 CLR
15:28 17.2 °F 0.8 °F 1022.9 in North 11.1 mph 11.1 mph 33 % 0.0 in 297.0 W/m2 CLR
15:33 17.2 °F 1.2 °F 1022.9 in North 14.8 mph 14.8 mph 34 % 0.0 in 287.0 W/m2 CLR
15:38 17.2 °F 0.8 °F 1022.9 in North 16.7 mph 16.7 mph 33 % 0.0 in 272.0 W/m2 CLR
15:43 17.2 °F 0.8 °F 1022.9 in NNW 14.8 mph 14.8 mph 33 % 0.0 in 260.0 W/m2 CLR
15:49 17.2 °F 0.8 °F 1022.9 in North 1.9 mph   33 % 0.0 in 246.0 W/m2 CLR
15:54 17.2 °F 0.8 °F 1022.6 in North 5.6 mph 5.6 mph 33 % 0.0 in 234.0 W/m2 CLR
15:59 17.2 °F 0.8 °F 1022.6 in NNW 3.7 mph   33 % 0.0 in 220.0 W/m2 CLR
16:04 16.7 °F 0.3 °F 1022.6 in Calm     33 % 0.0 in 202.0 W/m2 CLR
16:09 16.1 °F -0.2 °F 1022.6 in Calm     33 % 0.0 in 188.0 W/m2 CLR
16:14 16.1 °F -0.2 °F 1022.6 in Calm     33 % 0.0 in 174.0 W/m2 CLR
16:19 15.6 °F -0.3 °F 1022.6 in Calm     34 % 0.0 in 160.0 W/m2 CLR
16:24 15.6 °F -0.3 °F 1022.6 in Calm     34 % 0.0 in 142.0 W/m2 CLR
16:29 15.0 °F -0.8 °F 1022.6 in Calm     34 % 0.0 in 128.0 W/m2 CLR
16:34 15.0 °F -0.8 °F 1022.6 in Calm     34 % 0.0 in 114.0 W/m2 CLR
16:39 14.4 °F -1.2 °F 1022.6 in Calm     34 % 0.0 in 102.0 W/m2 CLR
16:44 14.4 °F -0.8 °F 1022.6 in Calm     35 % 0.0 in 90.0 W/m2 CLR
16:49 13.9 °F -1.3 °F 1022.6 in Calm     35 % 0.0 in 67.0 W/m2 FEW
16:54 13.3 °F -1.4 °F 1022.6 in Calm     36 % 0.0 in 54.0 W/m2 SCT
16:59 13.3 °F -1.4 °F 1022.6 in Calm     36 % 0.0 in 47.0 W/m2 SCT
17:04 12.2 °F -2.4 °F 1022.6 in Calm     36 % 0.0 in 37.0 W/m2 BKN
17:09 11.7 °F -2.6 °F 1022.6 in Calm     37 % 0.0 in 26.0 W/m2 BKN
17:14 11.1 °F -3.1 °F 1022.6 in Calm     37 % 0.0 in 19.0 W/m2 BKN
17:19 10.6 °F -3.6 °F 1022.6 in Calm     37 % 0.0 in 12.0 W/m2 BKN
17:21 10.6 °F -3.2 °F 1022.6 in Calm     38 % 0.0 in 12.0 W/m2 BKN
17:26 10.0 °F -3.7 °F 1022.6 in Calm     38 % 0.0 in 9.0 W/m2 BKN
17:31 9.4 °F -3.8 °F 1022.6 in Calm     39 % 0.0 in 7.0 W/m2 BKN
17:36 8.9 °F -4.3 °F 1022.6 in Calm     39 % 0.0 in 5.0 W/m2 OVC
17:41 8.3 °F -4.5 °F 1022.6 in Calm     40 % 0.0 in 0.0 W/m2 OVC
17:46 8.3 °F -4.2 °F 1022.6 in Calm     41 % 0.0 in 0.0 W/m2 OVC
17:51 7.8 °F -4.3 °F 1022.6 in Calm     42 % 0.0 in 0.0 W/m2 CLR
17:56 7.8 °F -4.3 °F 1022.6 in Calm     42 % 0.0 in 0.0 W/m2 CLR
18:01 7.8 °F -4.1 °F 1022.6 in Calm     43 % 0.0 in 0.0 W/m2 CLR
18:06 7.2 °F -4.6 °F 1022.9 in Calm     43 % 0.0 in 0.0 W/m2 CLR
18:11 7.2 °F -4.6 °F 1022.9 in Calm     43 % 0.0 in 0.0 W/m2 CLR
18:16 7.2 °F -4.6 °F 1022.9 in Calm     43 % 0.0 in 0.0 W/m2 CLR
18:21 6.7 °F -4.7 °F 1022.9 in Calm     44 % 0.0 in 0.0 W/m2 CLR
18:26 6.1 °F -5.3 °F 1022.9 in Calm     44 % 0.0 in 0.0 W/m2 CLR
18:31 6.1 °F -4.9 °F 1022.9 in Calm     45 % 0.0 in 0.0 W/m2 CLR
18:41 5.6 °F -4.6 °F 1023.2 in Calm     48 % 0.0 in 0.0 W/m2 CLR
18:47 6.1 °F -3.8 °F 1022.9 in Calm     49 % 0.0 in 0.0 W/m2 CLR
18:52 5.6 °F -4.1 °F 1023.2 in Calm     50 % 0.0 in 0.0 W/m2 CLR
18:57 5.6 °F -3.8 °F 1023.2 in Calm     51 % 0.0 in 0.0 W/m2 CLR
19:02 5.0 °F -4.3 °F 1023.2 in Calm     51 % 0.0 in 0.0 W/m2 CLR
19:07 4.4 °F -4.6 °F 1023.2 in Calm     52 % 0.0 in 0.0 W/m2 CLR
19:12 4.4 °F -4.6 °F 1023.2 in Calm     52 % 0.0 in 0.0 W/m2 CLR
19:17 3.9 °F -4.8 °F 1023.2 in Calm     53 % 0.0 in 0.0 W/m2 CLR
19:22 3.9 °F -4.8 °F 1023.2 in Calm     53 % 0.0 in 0.0 W/m2 CLR
19:27 3.3 °F -5.1 °F 1023.2 in Calm     54 % 0.0 in 0.0 W/m2 CLR
19:32 3.3 °F -5.1 °F 1023.2 in Calm     54 % 0.0 in 0.0 W/m2 CLR
19:37 2.8 °F -5.6 °F 1023.2 in Calm     54 % 0.0 in 0.0 W/m2 CLR
19:42 2.8 °F -5.4 °F 1023.6 in Calm     55 % 0.0 in 0.0 W/m2 CLR
19:47 2.8 °F -5.2 °F 1023.6 in Calm     56 % 0.0 in 0.0 W/m2 CLR
19:52 2.8 °F -5.2 °F 1023.9 in Calm     56 % 0.0 in 0.0 W/m2 CLR
19:57 2.8 °F -5.2 °F 1023.9 in Calm     56 % 0.0 in 0.0 W/m2 CLR
20:02 2.8 °F -4.9 °F 1023.9 in Calm     57 % 0.0 in 0.0 W/m2 CLR
20:07 2.8 °F -4.9 °F 1023.6 in Calm     57 % 0.0 in 0.0 W/m2 CLR
20:12 2.8 °F -4.9 °F 1023.6 in Calm     57 % 0.0 in 0.0 W/m2 CLR
20:17 2.8 °F -4.7 °F 1023.6 in Calm     58 % 0.0 in 0.0 W/m2 CLR
20:22 2.8 °F -4.7 °F 1023.6 in Calm     58 % 0.0 in 0.0 W/m2 CLR
20:27 2.8 °F -4.7 °F 1023.6 in Calm     58 % 0.0 in 0.0 W/m2 CLR
20:32 2.8 °F -4.7 °F 1023.6 in Calm     58 % 0.0 in 0.0 W/m2 CLR
20:33 2.8 °F -4.7 °F 1023.6 in Calm     58 % 0.0 in 0.0 W/m2 CLR
20:38 2.8 °F -4.4 °F 1023.6 in Calm     59 % 0.0 in 0.0 W/m2 CLR
20:43 2.8 °F -4.4 °F 1023.6 in Calm     59 % 0.0 in 0.0 W/m2 CLR
20:48 2.8 °F -4.4 °F 1023.6 in Calm     59 % 0.0 in 0.0 W/m2 CLR
20:53 2.8 °F -4.4 °F 1023.6 in Calm     59 % 0.0 in 0.0 W/m2 CLR
20:58 2.8 °F -4.4 °F 1023.6 in Calm     59 % 0.0 in 0.0 W/m2 CLR
21:03 2.2 °F -5.0 °F 1023.6 in Calm     59 % 0.0 in 0.0 W/m2 CLR
21:08 2.2 °F -4.8 °F 1023.6 in Calm     60 % 0.0 in 0.0 W/m2 CLR
21:13 2.2 °F -4.8 °F 1023.6 in Calm     60 % 0.0 in 0.0 W/m2 CLR
21:18 2.2 °F -4.8 °F 1023.6 in Calm     60 % 0.0 in 0.0 W/m2 CLR
21:23 2.2 °F -4.6 °F 1023.6 in Calm     61 % 0.0 in 0.0 W/m2 CLR
21:28 2.8 °F -4.0 °F 1023.6 in Calm     61 % 0.0 in 0.0 W/m2 CLR
21:33 2.8 °F -4.0 °F 1023.6 in Calm     61 % 0.0 in 0.0 W/m2 CLR
21:38 3.3 °F -3.5 °F 1023.9 in Calm     61 % 0.0 in 0.0 W/m2 CLR
21:43 3.3 °F -3.3 °F 1023.9 in Calm     62 % 0.0 in 0.0 W/m2 CLR
21:48 3.9 °F -2.9 °F 1023.9 in Calm     61 % 0.0 in 0.0 W/m2 CLR
21:53 3.3 °F -3.5 °F 1023.9 in Calm     61 % 0.0 in 0.0 W/m2 CLR
21:58 3.3 °F -3.5 °F 1023.6 in Calm     61 % 0.0 in 0.0 W/m2 CLR
22:03 3.3 °F -3.5 °F 1023.9 in Calm     61 % 0.0 in 0.0 W/m2 CLR
22:08 3.3 °F -3.5 °F 1023.9 in Calm     61 % 0.0 in 0.0 W/m2 CLR
22:13 3.3 °F -3.5 °F 1023.9 in Calm     61 % 0.0 in 0.0 W/m2 CLR
22:18 3.3 °F -3.3 °F 1023.9 in Calm     62 % 0.0 in 0.0 W/m2 CLR
22:23 2.8 °F -3.6 °F 1023.9 in Calm     63 % 0.0 in 0.0 W/m2 CLR
22:28 2.8 °F -3.4 °F 1023.9 in Calm     64 % 0.0 in 0.0 W/m2 CLR
22:33 2.8 °F -3.4 °F 1023.9 in Calm     64 % 0.0 in 0.0 W/m2 CLR
22:38 2.8 °F -2.9 °F 1024.3 in Calm     66 % 0.0 in 0.0 W/m2 CLR
22:43 2.8 °F -2.9 °F 1024.3 in Calm     66 % 0.0 in 0.0 W/m2 CLR
22:48 2.8 °F -2.9 °F 1024.3 in Calm     66 % 0.0 in 0.0 W/m2 CLR
22:53 2.2 °F -3.5 °F 1024.3 in Calm     66 % 0.0 in 0.0 W/m2 CLR
22:58 2.2 °F -3.3 °F 1024.3 in Calm     67 % 0.0 in 0.0 W/m2 CLR
23:03 2.2 °F -3.3 °F 1024.3 in Calm     67 % 0.0 in 0.0 W/m2 CLR
23:08 2.2 °F -2.9 °F 1024.3 in Calm     69 % 0.0 in 0.0 W/m2 CLR
23:13 2.2 °F -3.1 °F 1024.3 in Calm     68 % 0.0 in 0.0 W/m2 CLR
23:18 2.2 °F -3.3 °F 1024.3 in Calm     67 % 0.0 in 0.0 W/m2 CLR
23:23 2.2 °F -3.3 °F 1024.3 in Calm     67 % 0.0 in 0.0 W/m2 CLR
23:28 2.2 °F -3.5 °F 1024.3 in Calm     66 % 0.0 in 0.0 W/m2 CLR
23:33 2.2 °F -3.3 °F 1024.3 in Calm     67 % 0.0 in 0.0 W/m2 CLR
23:38 2.8 °F -2.7 °F 1024.3 in Calm     67 % 0.0 in 0.0 W/m2 CLR
23:43 2.2 °F -3.3 °F 1024.3 in Calm     67 % 0.0 in 0.0 W/m2 CLR
23:48 2.2 °F -3.7 °F 1024.3 in Calm     65 % 0.0 in 0.0 W/m2 CLR
23:53 2.2 °F -3.5 °F 1024.3 in Calm     66 % 0.0 in 0.0 W/m2 CLR
23:58 1.7 °F -3.6 °F 1024.3 in Calm     68 % 0.0 in 0.0 W/m2 CLR
Lo Temps de Massalio
Compliments of Weather Underground - 1.25 mb